Cerejeira, Brazil
Current Conditions -  °F | °C
As of 1:00 PM on Thursday 23 Oct 2014 (Local Time) from SBVH Reporting Station
Broken Clouds Broken Clouds  
Wind Chill: 31°   Ceiling: 2000
Heat Index: 34°   Visibility: 6mi
Dew Point: 22°   Wind: 7mph
Humidity: 58%   Direction: 40°NE
Pressure: 29.94"   Gusts: NA
Location:  13.19°S, 60.81°W
Report Text: SBVH 231700Z 04006KT 9999 BKN020 FEW023TCU 31/22 Q1014
Loading
Personal Weather Stations






























Interactive Weather Map
Tropical Storm Tracking
New forecast layout! Learn more

10-Day Weather Forecast

Advertisements
Track Severe Weather on mobile